LGX69M LTFM-LIPO
Flight info
| Callsign | LGX69M |
|---|---|
| Flight time | 2h 7m |
| Altitude | 36000 |
| Route | VADEN1D/35L VADEN Y520 OSTEX DCT BAKLO DCT DOLAP DCT OBLAK DCT NANER DCT VEBAR DCT KOREX DCT OBALA DCT NAKIT DCT ROTAR DCT TULIK DCT AKADO M196 KOPER L614 OSTEG |
| Aircraft | B77L/H-SDE2E3FGHIRWXY/LB1 |
Departure
| Time | 2026-05-06 19:55 |
|---|---|
| Airport | İstanbul Airport (LTFM) |
Arrival
| Time | 2026-05-06 22:02 |
|---|---|
| Airport | Brescia Gabriele d'Annunzio Airport (LIPO) |
| Time | Latitude | Longitude | Altitude | Speed | Heading |
|---|---|---|---|---|---|
| 2026-05-06 19:15 | 41.27111 | 28.72118 | 341 ft | 0 kts | 270° |
| 2026-05-06 19:45 | 41.27111 | 28.72117 | 340 ft | 0 kts | 270° |
| 2026-05-06 19:46 | 41.27111 | 28.72130 | 340 ft | 2 kts | 271° |
| 2026-05-06 19:46 | 41.27111 | 28.72160 | 340 ft | 3 kts | 270° |
| 2026-05-06 19:46 | 41.27111 | 28.72193 | 340 ft | 3 kts | 265° |
| 2026-05-06 19:46 | 41.27115 | 28.72226 | 340 ft | 3 kts | 252° |
| 2026-05-06 19:47 | 41.27126 | 28.72253 | 340 ft | 3 kts | 228° |
| 2026-05-06 19:47 | 41.27143 | 28.72271 | 340 ft | 2 kts | 199° |
| 2026-05-06 19:47 | 41.27161 | 28.72272 | 340 ft | 3 kts | 176° |
| 2026-05-06 19:47 | 41.27163 | 28.72272 | 340 ft | 1 kts | 176° |
| 2026-05-06 19:48 | 41.27141 | 28.72277 | 340 ft | 3 kts | 172° |
| 2026-05-06 19:48 | 41.27119 | 28.72278 | 340 ft | 0 kts | 185° |
| 2026-05-06 19:48 | 41.27121 | 28.72279 | 340 ft | 0 kts | 182° |
| 2026-05-06 19:51 | 41.27103 | 28.72279 | 340 ft | 11 kts | 177° |
| 2026-05-06 19:51 | 41.26982 | 28.72285 | 340 ft | 21 kts | 179° |
| 2026-05-06 19:51 | 41.26851 | 28.72286 | 340 ft | 18 kts | 181° |
| 2026-05-06 19:52 | 41.26738 | 28.72287 | 340 ft | 15 kts | 175° |
| 2026-05-06 19:52 | 41.26610 | 28.72294 | 340 ft | 20 kts | 179° |
| 2026-05-06 19:52 | 41.26465 | 28.72300 | 340 ft | 20 kts | 178° |
| 2026-05-06 19:52 | 41.26331 | 28.72299 | 340 ft | 20 kts | 180° |
| 2026-05-06 19:53 | 41.26227 | 28.72313 | 340 ft | 10 kts | 146° |
| 2026-05-06 19:53 | 41.26204 | 28.72372 | 340 ft | 0 kts | 90° |
| 2026-05-06 19:53 | 41.26204 | 28.72377 | 340 ft | 4 kts | 90° |
| 2026-05-06 19:54 | 41.26207 | 28.72477 | 340 ft | 14 kts | 77° |
| 2026-05-06 19:54 | 41.26273 | 28.72521 | 340 ft | 3 kts | 352° |
| 2026-05-06 19:54 | 41.26467 | 28.72511 | 340 ft | 72 kts | 1° |
| 2026-05-06 19:54 | 41.27303 | 28.72503 | 343 ft | 166 kts | 1° |
| 2026-05-06 19:55 | 41.28572 | 28.72472 | 1140 ft | 192 kts | 1° |
| 2026-05-06 19:55 | 41.29880 | 28.72499 | 2478 ft | 196 kts | 359° |
| 2026-05-06 19:55 | 41.31183 | 28.72408 | 3798 ft | 190 kts | 359° |
| 2026-05-06 19:55 | 41.32457 | 28.72459 | 4678 ft | 187 kts | 360° |
| 2026-05-06 19:56 | 41.33839 | 28.72490 | 5026 ft | 213 kts | 359° |
| 2026-05-06 19:56 | 41.35359 | 28.72505 | 5596 ft | 229 kts | 359° |
| 2026-05-06 19:56 | 41.36974 | 28.72327 | 6268 ft | 241 kts | 343° |
| 2026-05-06 19:56 | 41.38515 | 28.71300 | 7001 ft | 254 kts | 321° |
| 2026-05-06 19:57 | 41.39648 | 28.69501 | 7866 ft | 263 kts | 304° |
| 2026-05-06 19:57 | 41.40582 | 28.67404 | 8784 ft | 268 kts | 303° |
| 2026-05-06 19:57 | 41.41518 | 28.65282 | 9619 ft | 273 kts | 304° |
| 2026-05-06 19:57 | 41.42499 | 28.63090 | 10406 ft | 281 kts | 304° |
| 2026-05-06 19:58 | 41.43539 | 28.60787 | 10980 ft | 297 kts | 304° |
| 2026-05-06 19:58 | 41.44628 | 28.58373 | 11553 ft | 314 kts | 304° |
| 2026-05-06 19:58 | 41.45771 | 28.55837 | 12191 ft | 328 kts | 304° |
| 2026-05-06 19:58 | 41.46960 | 28.53194 | 12812 ft | 342 kts | 304° |
| 2026-05-06 19:59 | 41.48177 | 28.50484 | 13712 ft | 347 kts | 304° |
| 2026-05-06 19:59 | 41.49417 | 28.47723 | 14665 ft | 350 kts | 304° |
| 2026-05-06 19:59 | 41.50661 | 28.44949 | 15500 ft | 356 kts | 304° |
| 2026-05-06 19:59 | 41.51932 | 28.42116 | 16362 ft | 360 kts | 304° |
| 2026-05-06 20:00 | 41.53229 | 28.39220 | 17188 ft | 365 kts | 304° |
| 2026-05-06 20:00 | 41.54519 | 28.36338 | 18024 ft | 368 kts | 304° |
| 2026-05-06 20:00 | 41.55844 | 28.33375 | 18859 ft | 372 kts | 303° |
| 2026-05-06 20:00 | 41.57158 | 28.30434 | 19596 ft | 377 kts | 304° |
| 2026-05-06 20:01 | 41.58492 | 28.27381 | 20319 ft | 382 kts | 301° |
| 2026-05-06 20:01 | 41.59687 | 28.24213 | 21061 ft | 386 kts | 300° |
| 2026-05-06 20:01 | 41.60880 | 28.20996 | 21732 ft | 391 kts | 300° |
| 2026-05-06 20:01 | 41.62089 | 28.17755 | 22464 ft | 394 kts | 300° |
| 2026-05-06 20:02 | 41.63313 | 28.14480 | 23211 ft | 396 kts | 300° |
| 2026-05-06 20:02 | 41.64541 | 28.11204 | 23887 ft | 400 kts | 300° |
| 2026-05-06 20:02 | 41.65795 | 28.07861 | 24529 ft | 404 kts | 300° |
| 2026-05-06 20:02 | 41.67058 | 28.04495 | 25217 ft | 406 kts | 301° |
| 2026-05-06 20:03 | 41.68443 | 28.01299 | 25937 ft | 404 kts | 306° |
| 2026-05-06 20:03 | 41.69969 | 27.98140 | 26590 ft | 407 kts | 307° |
| 2026-05-06 20:03 | 41.71519 | 27.94943 | 27219 ft | 411 kts | 307° |
| 2026-05-06 20:03 | 41.73081 | 27.91716 | 27850 ft | 414 kts | 307° |
| 2026-05-06 20:04 | 41.74635 | 27.88501 | 28471 ft | 418 kts | 307° |
| 2026-05-06 20:04 | 41.76217 | 27.85222 | 29149 ft | 420 kts | 307° |
| 2026-05-06 20:04 | 41.77802 | 27.81933 | 29839 ft | 421 kts | 307° |
| 2026-05-06 20:04 | 41.79371 | 27.78673 | 30455 ft | 424 kts | 306° |
| 2026-05-06 20:05 | 41.80981 | 27.75326 | 30991 ft | 429 kts | 306° |
| 2026-05-06 20:05 | 41.82610 | 27.71933 | 31517 ft | 433 kts | 307° |
| 2026-05-06 20:05 | 41.84225 | 27.68567 | 32048 ft | 436 kts | 306° |
| 2026-05-06 20:05 | 41.85856 | 27.65160 | 32608 ft | 438 kts | 306° |
| 2026-05-06 20:06 | 41.87518 | 27.61688 | 33109 ft | 441 kts | 306° |
| 2026-05-06 20:06 | 41.89175 | 27.58221 | 33545 ft | 445 kts | 306° |
| 2026-05-06 20:06 | 41.90843 | 27.54725 | 34121 ft | 444 kts | 306° |
| 2026-05-06 20:06 | 41.92477 | 27.51296 | 34791 ft | 441 kts | 306° |
| 2026-05-06 20:07 | 41.94116 | 27.47854 | 35349 ft | 438 kts | 306° |
| 2026-05-06 20:07 | 41.95755 | 27.44408 | 35776 ft | 439 kts | 306° |
| 2026-05-06 20:07 | 41.97386 | 27.40978 | 36044 ft | 441 kts | 306° |
| 2026-05-06 20:07 | 41.99046 | 27.37482 | 36071 ft | 439 kts | 306° |
| 2026-05-06 20:08 | 42.02293 | 27.30624 | 36080 ft | 432 kts | 305° |
| 2026-05-06 20:08 | 42.05506 | 27.23830 | 36080 ft | 433 kts | 305° |
| 2026-05-06 20:09 | 42.08334 | 27.16709 | 36079 ft | 436 kts | 299° |
| 2026-05-06 20:09 | 42.10989 | 27.09366 | 36089 ft | 436 kts | 299° |
| 2026-05-06 20:10 | 42.13617 | 27.02077 | 36086 ft | 434 kts | 299° |
| 2026-05-06 20:10 | 42.16724 | 26.95173 | 36076 ft | 433 kts | 311° |
| 2026-05-06 20:11 | 42.20993 | 26.89500 | 36084 ft | 429 kts | 320° |
| 2026-05-06 20:11 | 42.25416 | 26.84196 | 36075 ft | 428 kts | 320° |
| 2026-05-06 20:12 | 42.29888 | 26.78815 | 36073 ft | 429 kts | 320° |
| 2026-05-06 20:12 | 42.34311 | 26.73476 | 36067 ft | 431 kts | 320° |
| 2026-05-06 20:13 | 42.38770 | 26.68080 | 36065 ft | 430 kts | 320° |
| 2026-05-06 20:13 | 42.43213 | 26.62690 | 36057 ft | 430 kts | 319° |
| 2026-05-06 20:14 | 42.47681 | 26.57259 | 36063 ft | 432 kts | 319° |
| 2026-05-06 20:14 | 42.51993 | 26.51642 | 36056 ft | 432 kts | 312° |
| 2026-05-06 20:15 | 42.55201 | 26.44749 | 36062 ft | 438 kts | 297° |
| 2026-05-06 20:15 | 42.57239 | 26.36955 | 36055 ft | 441 kts | 292° |
| 2026-05-06 20:16 | 42.59152 | 26.29028 | 36055 ft | 443 kts | 291° |
| 2026-05-06 20:16 | 42.61042 | 26.21162 | 36060 ft | 442 kts | 291° |
| 2026-05-06 20:17 | 42.62938 | 26.13241 | 36064 ft | 443 kts | 291° |
| 2026-05-06 20:17 | 42.64831 | 26.05301 | 36068 ft | 443 kts | 291° |
| 2026-05-06 20:18 | 42.66719 | 25.97358 | 36091 ft | 442 kts | 291° |
| 2026-05-06 20:18 | 42.68591 | 25.89449 | 36096 ft | 443 kts | 291° |
| 2026-05-06 20:19 | 42.70472 | 25.81480 | 36103 ft | 443 kts | 291° |
| 2026-05-06 20:19 | 42.72338 | 25.73540 | 36104 ft | 442 kts | 291° |
| 2026-05-06 20:20 | 42.74198 | 25.65599 | 36108 ft | 443 kts | 290° |
| 2026-05-06 20:20 | 42.76063 | 25.57610 | 36109 ft | 443 kts | 291° |
| 2026-05-06 20:21 | 42.77917 | 25.49640 | 36111 ft | 443 kts | 290° |
| 2026-05-06 20:21 | 42.79760 | 25.41685 | 36108 ft | 443 kts | 290° |
| 2026-05-06 20:22 | 42.81611 | 25.33671 | 36103 ft | 446 kts | 290° |
| 2026-05-06 20:22 | 42.83462 | 25.25628 | 36106 ft | 444 kts | 290° |
| 2026-05-06 20:23 | 42.85301 | 25.17606 | 36097 ft | 444 kts | 289° |
| 2026-05-06 20:23 | 42.87124 | 25.09625 | 36095 ft | 444 kts | 289° |
| 2026-05-06 20:24 | 42.88948 | 25.01609 | 36084 ft | 445 kts | 289° |
| 2026-05-06 20:24 | 42.90778 | 24.93542 | 36082 ft | 445 kts | 289° |
| 2026-05-06 20:25 | 42.92583 | 24.85551 | 36081 ft | 445 kts | 289° |
| 2026-05-06 20:25 | 42.94400 | 24.77478 | 36072 ft | 445 kts | 289° |
| 2026-05-06 20:26 | 42.96199 | 24.69458 | 36074 ft | 445 kts | 289° |
| 2026-05-06 20:26 | 42.97997 | 24.61409 | 36056 ft | 444 kts | 289° |
| 2026-05-06 20:27 | 42.99791 | 24.53349 | 36032 ft | 445 kts | 289° |
| 2026-05-06 20:27 | 43.01579 | 24.45289 | 36027 ft | 445 kts | 289° |
| 2026-05-06 20:28 | 43.03363 | 24.37212 | 36021 ft | 445 kts | 289° |
| 2026-05-06 20:28 | 43.05147 | 24.29108 | 36031 ft | 446 kts | 288° |
| 2026-05-06 20:29 | 43.06927 | 24.20989 | 36026 ft | 446 kts | 288° |
| 2026-05-06 20:29 | 43.08686 | 24.12935 | 36024 ft | 446 kts | 288° |
| 2026-05-06 20:30 | 43.11337 | 24.00745 | 36016 ft | 445 kts | 288° |
| 2026-05-06 20:31 | 43.13091 | 23.92636 | 36018 ft | 445 kts | 288° |
| 2026-05-06 20:31 | 43.14833 | 23.84556 | 36024 ft | 445 kts | 288° |
| 2026-05-06 20:32 | 43.16575 | 23.76442 | 36028 ft | 446 kts | 288° |
| 2026-05-06 20:32 | 43.18319 | 23.68286 | 36036 ft | 445 kts | 288° |
| 2026-05-06 20:33 | 43.20049 | 23.60165 | 36031 ft | 446 kts | 288° |
| 2026-05-06 20:33 | 43.21772 | 23.52045 | 36033 ft | 447 kts | 288° |
| 2026-05-06 20:34 | 43.23497 | 23.43887 | 36040 ft | 447 kts | 288° |
| 2026-05-06 20:34 | 43.25213 | 23.35736 | 36035 ft | 446 kts | 288° |
| 2026-05-06 20:35 | 43.26923 | 23.27585 | 36039 ft | 446 kts | 287° |
| 2026-05-06 20:35 | 43.28630 | 23.19408 | 36040 ft | 445 kts | 287° |
| 2026-05-06 20:36 | 43.30315 | 23.11314 | 36050 ft | 445 kts | 287° |
| 2026-05-06 20:36 | 43.32008 | 23.03145 | 36060 ft | 446 kts | 287° |
| 2026-05-06 20:37 | 43.33695 | 22.94972 | 36062 ft | 444 kts | 287° |
| 2026-05-06 20:37 | 43.35368 | 22.86836 | 36058 ft | 445 kts | 287° |
| 2026-05-06 20:38 | 43.37032 | 22.78709 | 36058 ft | 443 kts | 287° |
| 2026-05-06 20:38 | 43.38974 | 22.70751 | 36061 ft | 442 kts | 292° |
| 2026-05-06 20:39 | 43.41248 | 22.62877 | 36051 ft | 441 kts | 292° |
| 2026-05-06 20:39 | 43.43469 | 22.55048 | 36059 ft | 439 kts | 292° |
| 2026-05-06 20:40 | 43.45652 | 22.47263 | 36059 ft | 439 kts | 292° |
| 2026-05-06 20:40 | 43.47828 | 22.39447 | 36060 ft | 438 kts | 292° |
| 2026-05-06 20:41 | 43.49873 | 22.31550 | 36057 ft | 438 kts | 288° |
| 2026-05-06 20:41 | 43.51679 | 22.23590 | 36036 ft | 437 kts | 288° |
| 2026-05-06 20:42 | 43.53495 | 22.15613 | 36032 ft | 437 kts | 288° |
| 2026-05-06 20:42 | 43.55299 | 22.07700 | 36038 ft | 434 kts | 288° |
| 2026-05-06 20:43 | 43.57110 | 21.99748 | 36031 ft | 436 kts | 288° |
| 2026-05-06 20:43 | 43.58904 | 21.91855 | 36024 ft | 433 kts | 288° |
| 2026-05-06 20:44 | 43.60700 | 21.83927 | 36022 ft | 433 kts | 288° |
| 2026-05-06 20:44 | 43.62484 | 21.76029 | 36014 ft | 433 kts | 288° |
| 2026-05-06 20:45 | 43.64270 | 21.68090 | 36013 ft | 435 kts | 288° |
| 2026-05-06 20:45 | 43.66040 | 21.60195 | 36008 ft | 433 kts | 288° |
| 2026-05-06 20:46 | 43.67820 | 21.52231 | 36006 ft | 434 kts | 287° |
| 2026-05-06 20:46 | 43.69575 | 21.44344 | 35996 ft | 432 kts | 287° |
| 2026-05-06 20:47 | 43.71343 | 21.36374 | 35992 ft | 434 kts | 287° |
| 2026-05-06 20:47 | 43.73101 | 21.28417 | 36001 ft | 432 kts | 287° |
| 2026-05-06 20:48 | 43.74845 | 21.20492 | 35995 ft | 435 kts | 286° |
| 2026-05-06 20:48 | 43.76593 | 21.12523 | 36002 ft | 435 kts | 286° |
| 2026-05-06 20:49 | 43.78328 | 21.04583 | 36002 ft | 432 kts | 286° |
| 2026-05-06 20:49 | 43.80059 | 20.96628 | 36003 ft | 433 kts | 286° |
| 2026-05-06 20:50 | 43.81779 | 20.88694 | 36003 ft | 433 kts | 286° |
| 2026-05-06 20:50 | 43.83512 | 20.80672 | 35991 ft | 433 kts | 286° |
| 2026-05-06 20:51 | 43.85222 | 20.72727 | 35989 ft | 432 kts | 286° |
| 2026-05-06 20:51 | 43.86932 | 20.64754 | 35991 ft | 434 kts | 286° |
| 2026-05-06 20:52 | 43.88642 | 20.56743 | 35993 ft | 434 kts | 285° |
| 2026-05-06 20:52 | 43.90345 | 20.48739 | 35986 ft | 433 kts | 285° |
| 2026-05-06 20:53 | 43.91920 | 20.40759 | 35988 ft | 434 kts | 283° |
| 2026-05-06 20:53 | 43.93388 | 20.32630 | 35994 ft | 433 kts | 283° |
| 2026-05-06 20:54 | 43.94855 | 20.24522 | 36004 ft | 433 kts | 283° |
| 2026-05-06 20:54 | 43.96314 | 20.16460 | 35996 ft | 433 kts | 283° |
| 2026-05-06 20:55 | 43.97772 | 20.08377 | 36001 ft | 433 kts | 283° |
| 2026-05-06 20:55 | 43.99217 | 20.00339 | 36015 ft | 430 kts | 283° |
| 2026-05-06 20:56 | 44.00659 | 19.92286 | 36012 ft | 432 kts | 283° |
| 2026-05-06 20:56 | 44.02099 | 19.84218 | 36010 ft | 433 kts | 283° |
| 2026-05-06 20:57 | 44.03546 | 19.76067 | 36010 ft | 433 kts | 283° |
| 2026-05-06 20:57 | 44.04971 | 19.68003 | 36009 ft | 436 kts | 283° |
| 2026-05-06 20:58 | 44.06409 | 19.59834 | 35999 ft | 432 kts | 283° |
| 2026-05-06 20:58 | 44.07819 | 19.51786 | 35998 ft | 434 kts | 283° |
| 2026-05-06 20:59 | 44.09242 | 19.43629 | 36004 ft | 432 kts | 282° |
| 2026-05-06 20:59 | 44.10648 | 19.35536 | 36001 ft | 430 kts | 283° |
| 2026-05-06 21:00 | 44.12045 | 19.27447 | 36019 ft | 433 kts | 282° |
| 2026-05-06 21:00 | 44.13438 | 19.19351 | 36023 ft | 433 kts | 282° |
| 2026-05-06 21:01 | 44.14991 | 19.11263 | 36019 ft | 432 kts | 284° |
| 2026-05-06 21:01 | 44.16637 | 19.03220 | 36024 ft | 434 kts | 284° |
| 2026-05-06 21:02 | 44.18274 | 18.95142 | 36016 ft | 434 kts | 284° |
| 2026-05-06 21:02 | 44.19888 | 18.87112 | 36023 ft | 433 kts | 284° |
| 2026-05-06 21:03 | 44.21501 | 18.79037 | 36031 ft | 434 kts | 284° |
| 2026-05-06 21:03 | 44.23093 | 18.71034 | 36031 ft | 431 kts | 283° |
| 2026-05-06 21:04 | 44.24687 | 18.62980 | 36029 ft | 430 kts | 283° |
| 2026-05-06 21:04 | 44.26265 | 18.54975 | 36027 ft | 430 kts | 283° |
| 2026-05-06 21:05 | 44.27834 | 18.46984 | 36028 ft | 429 kts | 283° |
| 2026-05-06 21:05 | 44.29398 | 18.38981 | 36026 ft | 429 kts | 283° |
| 2026-05-06 21:06 | 44.30971 | 18.30900 | 36035 ft | 429 kts | 283° |
| 2026-05-06 21:06 | 44.32512 | 18.22948 | 36036 ft | 430 kts | 283° |
| 2026-05-06 21:07 | 44.34067 | 18.14896 | 36025 ft | 429 kts | 282° |
| 2026-05-06 21:07 | 44.35603 | 18.06903 | 36011 ft | 427 kts | 283° |
| 2026-05-06 21:08 | 44.37136 | 17.98895 | 36012 ft | 432 kts | 283° |
| 2026-05-06 21:08 | 44.38683 | 17.90783 | 36002 ft | 428 kts | 282° |
| 2026-05-06 21:09 | 44.40201 | 17.82787 | 35999 ft | 429 kts | 283° |
| 2026-05-06 21:09 | 44.41718 | 17.74764 | 36003 ft | 428 kts | 282° |
| 2026-05-06 21:10 | 44.43232 | 17.66718 | 35996 ft | 431 kts | 282° |
| 2026-05-06 21:10 | 44.44747 | 17.58640 | 36007 ft | 429 kts | 282° |
| 2026-05-06 21:11 | 44.46252 | 17.50571 | 36010 ft | 432 kts | 282° |
| 2026-05-06 21:11 | 44.47759 | 17.42465 | 36009 ft | 429 kts | 282° |
| 2026-05-06 21:12 | 44.49254 | 17.34385 | 36012 ft | 432 kts | 281° |
| 2026-05-06 21:12 | 44.50750 | 17.26270 | 36022 ft | 429 kts | 281° |
| 2026-05-06 21:13 | 44.52228 | 17.18207 | 36018 ft | 428 kts | 281° |
| 2026-05-06 21:13 | 44.53703 | 17.10128 | 36016 ft | 431 kts | 281° |
| 2026-05-06 21:14 | 44.55175 | 17.02042 | 36016 ft | 428 kts | 281° |
| 2026-05-06 21:14 | 44.56633 | 16.93983 | 36010 ft | 429 kts | 280° |
| 2026-05-06 21:15 | 44.58099 | 16.85855 | 36010 ft | 429 kts | 280° |
| 2026-05-06 21:15 | 44.59549 | 16.77770 | 36002 ft | 428 kts | 280° |
| 2026-05-06 21:16 | 44.60990 | 16.69705 | 35992 ft | 429 kts | 280° |
| 2026-05-06 21:16 | 44.62439 | 16.61557 | 35988 ft | 431 kts | 281° |
| 2026-05-06 21:17 | 44.63869 | 16.53487 | 35990 ft | 429 kts | 280° |
| 2026-05-06 21:17 | 44.65306 | 16.45331 | 35985 ft | 429 kts | 280° |
| 2026-05-06 21:18 | 44.66727 | 16.37236 | 35983 ft | 428 kts | 280° |
| 2026-05-06 21:18 | 44.68140 | 16.29143 | 35992 ft | 430 kts | 279° |
| 2026-05-06 21:19 | 44.69552 | 16.21023 | 35990 ft | 430 kts | 279° |
| 2026-05-06 21:19 | 44.70959 | 16.12897 | 35977 ft | 429 kts | 279° |
| 2026-05-06 21:20 | 44.72358 | 16.04780 | 35966 ft | 428 kts | 279° |
| 2026-05-06 21:20 | 44.73750 | 15.96661 | 35967 ft | 429 kts | 279° |
| 2026-05-06 21:21 | 44.75138 | 15.88532 | 35967 ft | 429 kts | 279° |
| 2026-05-06 21:21 | 44.76527 | 15.80354 | 35968 ft | 430 kts | 279° |
| 2026-05-06 21:22 | 44.77967 | 15.72245 | 35976 ft | 432 kts | 281° |
| 2026-05-06 21:22 | 44.79539 | 15.64067 | 35980 ft | 433 kts | 281° |
| 2026-05-06 21:23 | 44.81093 | 15.55921 | 35981 ft | 432 kts | 280° |
| 2026-05-06 21:23 | 44.82636 | 15.47769 | 35983 ft | 434 kts | 280° |
| 2026-05-06 21:24 | 44.84179 | 15.39570 | 35979 ft | 434 kts | 280° |
| 2026-05-06 21:24 | 44.85711 | 15.31385 | 35985 ft | 434 kts | 279° |
| 2026-05-06 21:25 | 44.87242 | 15.23167 | 35984 ft | 433 kts | 279° |
| 2026-05-06 21:25 | 44.88760 | 15.14987 | 35990 ft | 435 kts | 279° |
| 2026-05-06 21:26 | 44.90292 | 15.06689 | 36002 ft | 435 kts | 279° |
| 2026-05-06 21:26 | 44.91801 | 14.98478 | 36006 ft | 436 kts | 279° |
| 2026-05-06 21:27 | 44.93310 | 14.90223 | 35992 ft | 437 kts | 279° |
| 2026-05-06 21:27 | 44.94815 | 14.81962 | 35968 ft | 435 kts | 279° |
| 2026-05-06 21:28 | 44.96315 | 14.73677 | 35972 ft | 439 kts | 279° |
| 2026-05-06 21:28 | 44.97801 | 14.65445 | 35966 ft | 436 kts | 279° |
| 2026-05-06 21:29 | 44.99291 | 14.57147 | 35958 ft | 438 kts | 279° |
| 2026-05-06 21:29 | 45.00789 | 14.48763 | 35954 ft | 439 kts | 279° |
| 2026-05-06 21:30 | 45.02273 | 14.40420 | 35955 ft | 442 kts | 279° |
| 2026-05-06 21:30 | 45.03762 | 14.32018 | 35959 ft | 440 kts | 278° |
| 2026-05-06 21:31 | 45.05240 | 14.23630 | 35948 ft | 442 kts | 278° |
| 2026-05-06 21:31 | 45.06720 | 14.15196 | 35950 ft | 443 kts | 278° |
| 2026-05-06 21:32 | 45.08188 | 14.06791 | 35949 ft | 442 kts | 278° |
| 2026-05-06 21:32 | 45.10386 | 13.94127 | 35942 ft | 443 kts | 278° |
| 2026-05-06 21:33 | 45.11834 | 13.85742 | 35933 ft | 441 kts | 278° |
| 2026-05-06 21:33 | 45.13289 | 13.77263 | 35942 ft | 443 kts | 279° |
| 2026-05-06 21:34 | 45.14726 | 13.68865 | 35930 ft | 440 kts | 278° |
| 2026-05-06 21:34 | 45.16161 | 13.60422 | 35936 ft | 443 kts | 278° |
| 2026-05-06 21:35 | 45.17593 | 13.51962 | 35927 ft | 443 kts | 278° |
| 2026-05-06 21:35 | 45.19009 | 13.43560 | 35921 ft | 440 kts | 278° |
| 2026-05-06 21:36 | 45.20418 | 13.35118 | 35926 ft | 441 kts | 278° |
| 2026-05-06 21:36 | 45.21810 | 13.26733 | 35931 ft | 440 kts | 278° |
| 2026-05-06 21:37 | 45.23199 | 13.18326 | 35915 ft | 438 kts | 278° |
| 2026-05-06 21:37 | 45.24589 | 13.09871 | 35912 ft | 439 kts | 278° |
| 2026-05-06 21:38 | 45.25955 | 13.01523 | 35903 ft | 441 kts | 278° |
| 2026-05-06 21:38 | 45.26958 | 12.93005 | 35836 ft | 438 kts | 273° |
| 2026-05-06 21:39 | 45.27393 | 12.88728 | 35264 ft | 446 kts | 273° |
| 2026-05-06 21:39 | 45.27835 | 12.84367 | 34468 ft | 451 kts | 273° |
| 2026-05-06 21:39 | 45.28283 | 12.79986 | 33514 ft | 454 kts | 274° |
| 2026-05-06 21:39 | 45.28951 | 12.75543 | 32556 ft | 460 kts | 278° |
| 2026-05-06 21:40 | 45.29698 | 12.71196 | 31624 ft | 463 kts | 278° |
| 2026-05-06 21:40 | 45.30466 | 12.66739 | 30674 ft | 465 kts | 278° |
| 2026-05-06 21:40 | 45.31225 | 12.62318 | 29734 ft | 467 kts | 278° |
| 2026-05-06 21:40 | 45.31992 | 12.57832 | 28852 ft | 467 kts | 278° |
| 2026-05-06 21:41 | 45.32510 | 12.53340 | 28447 ft | 450 kts | 269° |
| 2026-05-06 21:41 | 45.32541 | 12.49042 | 28076 ft | 435 kts | 262° |
| 2026-05-06 21:41 | 45.32141 | 12.44870 | 27614 ft | 423 kts | 254° |
| 2026-05-06 21:41 | 45.31406 | 12.40877 | 27137 ft | 414 kts | 251° |
| 2026-05-06 21:42 | 45.30619 | 12.36957 | 26652 ft | 407 kts | 250° |
| 2026-05-06 21:42 | 45.29848 | 12.33159 | 26190 ft | 401 kts | 249° |
| 2026-05-06 21:42 | 45.29082 | 12.29411 | 25745 ft | 395 kts | 249° |
| 2026-05-06 21:42 | 45.28324 | 12.25713 | 25270 ft | 389 kts | 249° |
| 2026-05-06 21:43 | 45.27567 | 12.22043 | 24802 ft | 384 kts | 249° |
| 2026-05-06 21:43 | 45.26810 | 12.18394 | 24347 ft | 392 kts | 249° |
| 2026-05-06 21:43 | 45.26028 | 12.14635 | 23856 ft | 398 kts | 249° |
| 2026-05-06 21:43 | 45.25259 | 12.10937 | 23372 ft | 395 kts | 249° |
| 2026-05-06 21:44 | 45.24479 | 12.07197 | 22897 ft | 392 kts | 249° |
| 2026-05-06 21:44 | 45.23715 | 12.03537 | 22423 ft | 388 kts | 249° |
| 2026-05-06 21:44 | 45.22954 | 11.99899 | 22204 ft | 381 kts | 249° |
| 2026-05-06 21:44 | 45.22194 | 11.96281 | 22195 ft | 387 kts | 249° |
| 2026-05-06 21:45 | 45.21430 | 11.92653 | 22029 ft | 389 kts | 249° |
| 2026-05-06 21:45 | 45.20650 | 11.88951 | 21576 ft | 390 kts | 249° |
| 2026-05-06 21:45 | 45.19878 | 11.85289 | 21030 ft | 387 kts | 249° |
| 2026-05-06 21:45 | 45.19109 | 11.81652 | 20468 ft | 384 kts | 250° |
| 2026-05-06 21:46 | 45.18357 | 11.78097 | 19925 ft | 381 kts | 250° |
| 2026-05-06 21:46 | 45.17598 | 11.74517 | 19374 ft | 378 kts | 250° |
| 2026-05-06 21:46 | 45.16851 | 11.71007 | 18839 ft | 374 kts | 251° |
| 2026-05-06 21:46 | 45.16097 | 11.67464 | 18303 ft | 371 kts | 251° |
| 2026-05-06 21:47 | 45.15571 | 11.63923 | 17766 ft | 372 kts | 262° |
| 2026-05-06 21:47 | 45.15583 | 11.60252 | 17237 ft | 372 kts | 270° |
| 2026-05-06 21:47 | 45.15761 | 11.56628 | 16710 ft | 370 kts | 270° |
| 2026-05-06 21:47 | 45.15947 | 11.53031 | 16186 ft | 367 kts | 270° |
| 2026-05-06 21:48 | 45.16130 | 11.49445 | 15657 ft | 365 kts | 270° |
| 2026-05-06 21:48 | 45.16310 | 11.45883 | 15144 ft | 362 kts | 270° |
| 2026-05-06 21:48 | 45.16486 | 11.42368 | 14627 ft | 360 kts | 270° |
| 2026-05-06 21:48 | 45.16660 | 11.38847 | 14115 ft | 358 kts | 271° |
| 2026-05-06 21:49 | 45.16833 | 11.35324 | 13603 ft | 356 kts | 271° |
| 2026-05-06 21:49 | 45.17003 | 11.31845 | 13083 ft | 355 kts | 270° |
| 2026-05-06 21:49 | 45.17170 | 11.28401 | 12582 ft | 352 kts | 270° |
| 2026-05-06 21:49 | 45.17336 | 11.24951 | 12078 ft | 351 kts | 271° |
| 2026-05-06 21:50 | 45.17500 | 11.21509 | 11570 ft | 349 kts | 271° |
| 2026-05-06 21:50 | 45.17662 | 11.18089 | 11078 ft | 347 kts | 271° |
| 2026-05-06 21:50 | 45.17967 | 11.14732 | 10683 ft | 343 kts | 283° |
| 2026-05-06 21:50 | 45.18875 | 11.11704 | 10599 ft | 332 kts | 295° |
| 2026-05-06 21:51 | 45.19979 | 11.08905 | 10513 ft | 319 kts | 297° |
| 2026-05-06 21:51 | 45.21076 | 11.06255 | 10394 ft | 307 kts | 297° |
| 2026-05-06 21:51 | 45.22149 | 11.03692 | 10265 ft | 297 kts | 297° |
| 2026-05-06 21:51 | 45.23180 | 11.01233 | 10140 ft | 286 kts | 297° |
| 2026-05-06 21:52 | 45.24183 | 10.98841 | 10021 ft | 276 kts | 297° |
| 2026-05-06 21:52 | 45.25138 | 10.96562 | 9879 ft | 267 kts | 297° |
| 2026-05-06 21:52 | 45.26094 | 10.94276 | 9496 ft | 269 kts | 297° |
| 2026-05-06 21:52 | 45.26958 | 10.91969 | 9115 ft | 267 kts | 287° |
| 2026-05-06 21:53 | 45.27197 | 10.89425 | 8752 ft | 260 kts | 260° |
| 2026-05-06 21:53 | 45.26575 | 10.87055 | 8438 ft | 254 kts | 233° |
| 2026-05-06 21:53 | 45.25429 | 10.85200 | 8181 ft | 250 kts | 226° |
| 2026-05-06 21:53 | 45.24209 | 10.83456 | 7892 ft | 248 kts | 225° |
| 2026-05-06 21:54 | 45.22992 | 10.81713 | 7587 ft | 247 kts | 225° |
| 2026-05-06 21:54 | 45.21796 | 10.79986 | 7289 ft | 246 kts | 225° |
| 2026-05-06 21:54 | 45.20599 | 10.78253 | 6977 ft | 246 kts | 226° |
| 2026-05-06 21:54 | 45.19405 | 10.76524 | 6662 ft | 245 kts | 226° |
| 2026-05-06 21:55 | 45.18246 | 10.74847 | 6557 ft | 235 kts | 226° |
| 2026-05-06 21:55 | 45.17383 | 10.72993 | 6466 ft | 223 kts | 253° |
| 2026-05-06 21:55 | 45.17256 | 10.70857 | 6390 ft | 214 kts | 276° |
| 2026-05-06 21:55 | 45.17847 | 10.68890 | 6091 ft | 226 kts | 304° |
| 2026-05-06 21:56 | 45.18870 | 10.67189 | 5754 ft | 229 kts | 309° |
| 2026-05-06 21:56 | 45.19958 | 10.65552 | 5445 ft | 229 kts | 311° |
| 2026-05-06 21:56 | 45.21079 | 10.63921 | 5145 ft | 229 kts | 312° |
| 2026-05-06 21:56 | 45.22188 | 10.62332 | 4871 ft | 228 kts | 312° |
| 2026-05-06 21:57 | 45.23301 | 10.60754 | 4694 ft | 224 kts | 313° |
| 2026-05-06 21:57 | 45.24412 | 10.59184 | 4525 ft | 226 kts | 313° |
| 2026-05-06 21:57 | 45.25521 | 10.57622 | 4335 ft | 224 kts | 313° |
| 2026-05-06 21:57 | 45.26616 | 10.56081 | 4154 ft | 218 kts | 313° |
| 2026-05-06 21:58 | 45.27673 | 10.54590 | 3976 ft | 211 kts | 313° |
| 2026-05-06 21:58 | 45.28689 | 10.53157 | 3806 ft | 205 kts | 313° |
| 2026-05-06 21:58 | 45.29686 | 10.51749 | 3642 ft | 198 kts | 313° |
| 2026-05-06 21:58 | 45.30660 | 10.50375 | 3413 ft | 195 kts | 314° |
| 2026-05-06 21:59 | 45.31605 | 10.49041 | 3173 ft | 188 kts | 314° |
| 2026-05-06 21:59 | 45.32516 | 10.47756 | 2946 ft | 184 kts | 314° |
| 2026-05-06 21:59 | 45.33418 | 10.46483 | 2711 ft | 182 kts | 314° |
| 2026-05-06 21:59 | 45.34314 | 10.45218 | 2476 ft | 181 kts | 314° |
| 2026-05-06 22:00 | 45.35208 | 10.43957 | 2240 ft | 181 kts | 314° |
| 2026-05-06 22:00 | 45.36091 | 10.42708 | 2005 ft | 181 kts | 314° |
| 2026-05-06 22:00 | 45.36983 | 10.41447 | 1766 ft | 181 kts | 314° |
| 2026-05-06 22:00 | 45.37878 | 10.40181 | 1526 ft | 177 kts | 315° |
| 2026-05-06 22:01 | 45.38735 | 10.38967 | 1295 ft | 167 kts | 315° |
| 2026-05-06 22:01 | 45.39538 | 10.37829 | 1075 ft | 163 kts | 316° |
| 2026-05-06 22:01 | 45.40346 | 10.36703 | 865 ft | 161 kts | 317° |
| 2026-05-06 22:01 | 45.41122 | 10.35592 | 655 ft | 160 kts | 315° |
| 2026-05-06 22:02 | 45.41928 | 10.34444 | 432 ft | 160 kts | 316° |
| 2026-05-06 22:02 | 45.42689 | 10.33366 | 352 ft | 141 kts | 317° |
| 2026-05-06 22:02 | 45.43173 | 10.32679 | 361 ft | 53 kts | 315° |
| 2026-05-06 22:02 | 45.43382 | 10.32384 | 363 ft | 34 kts | 312° |
| 2026-05-06 22:03 | 45.43543 | 10.32149 | 364 ft | 32 kts | 315° |
| 2026-05-06 22:03 | 45.43687 | 10.31947 | 365 ft | 19 kts | 314° |
| 2026-05-06 22:03 | 45.43767 | 10.31795 | 366 ft | 21 kts | 272° |
| 2026-05-06 22:03 | 45.43689 | 10.31660 | 365 ft | 13 kts | 197° |
| 2026-05-06 22:04 | 45.43590 | 10.31720 | 364 ft | 18 kts | 142° |
| 2026-05-06 22:04 | 45.43493 | 10.31855 | 364 ft | 21 kts | 136° |
| 2026-05-06 22:04 | 45.43411 | 10.31973 | 363 ft | 17 kts | 132° |
| 2026-05-06 22:04 | 45.43312 | 10.32111 | 362 ft | 22 kts | 136° |
| 2026-05-06 22:05 | 45.43198 | 10.32272 | 361 ft | 19 kts | 136° |
| 2026-05-06 22:05 | 45.43090 | 10.32424 | 360 ft | 22 kts | 134° |
| 2026-05-06 22:05 | 45.42979 | 10.32584 | 358 ft | 23 kts | 133° |
| 2026-05-06 22:05 | 45.42862 | 10.32753 | 356 ft | 24 kts | 136° |
| 2026-05-06 22:06 | 45.42743 | 10.32921 | 354 ft | 24 kts | 134° |
| 2026-05-06 22:06 | 45.42642 | 10.33063 | 352 ft | 15 kts | 136° |
| 2026-05-06 22:06 | 45.42549 | 10.33090 | 351 ft | 14 kts | 165° |
| 2026-05-06 22:06 | 45.42476 | 10.33074 | 350 ft | 9 kts | 217° |
| 2026-05-06 22:07 | 45.42466 | 10.33061 | 350 ft | 2 kts | 224° |
| 2026-05-06 22:07 | 45.42447 | 10.33036 | 350 ft | 0 kts | 224° |
| 2026-05-06 22:07 | 45.42447 | 10.33035 | 350 ft | 0 kts | 224° |